Time;durP1;ratioP1;P1;durP2;ratioP2;P2;SDS_P1;SDS_P2;PMS_P1;PMS_P2;Temp;Humidity;BMP_temperature;BMP_pressure;BME280_temperature;BME280_humidity;BME280_pressure;Samples;Min_cycle;Max_cycle;Signal;HPM_P1;HPM_P2
2021/12/01 00:02:08;;;;;;;0.70;0.70;;;11.00;99.90;10.80;100094.00;;;;4997551;28;20197;-73
2021/12/01 00:04:43;;;;;;;0.70;0.70;;;10.90;99.90;11.10;100061.00;;;;5015487;28;20530;-73
2021/12/01 00:07:11;;;;;;;0.50;0.50;;;10.90;99.90;10.80;100070.00;;;;5014402;28;20180;-72
2021/12/01 00:09:42;;;;;;;0.57;0.57;;;10.90;99.90;10.90;100047.00;;;;5015009;28;20174;-72
2021/12/01 00:12:14;;;;;;;0.40;0.40;;;10.90;99.90;11.10;100061.00;;;;5014770;28;20671;-72
2021/12/01 00:14:48;;;;;;;0.70;0.70;;;10.90;99.90;10.50;100036.00;;;;5011326;28;20206;-72
2021/12/01 00:17:19;;;;;;;0.57;0.57;;;10.80;99.90;10.50;100032.00;;;;4993717;28;20558;-72
2021/12/01 00:19:53;;;;;;;0.43;0.43;;;10.70;99.90;10.60;99986.00;;;;4994429;28;20190;-72
2021/12/01 00:22:22;;;;;;;0.50;0.50;;;10.70;99.90;10.90;100032.00;;;;5010626;28;20198;-72
2021/12/01 00:24:54;;;;;;;0.60;0.60;;;10.80;99.90;10.90;100015.00;;;;4995156;28;20696;-72
2021/12/01 00:27:28;;;;;;;1.17;1.07;;;10.80;99.90;10.70;100015.00;;;;5011439;28;20263;-72
2021/12/01 00:29:56;;;;;;;0.50;0.50;;;10.70;99.90;10.40;100018.00;;;;4995329;28;20193;-72
2021/12/01 00:32:31;;;;;;;0.40;0.40;;;10.60;99.90;10.70;99997.00;;;;5026239;28;20231;-72
2021/12/01 00:35:01;;;;;;;0.40;0.40;;;10.70;99.90;10.80;99967.00;;;;4994716;28;20197;-73
2021/12/01 00:37:34;;;;;;;0.67;0.67;;;10.70;99.90;10.50;99984.00;;;;4994277;28;20184;-72
2021/12/01 00:40:08;;;;;;;1.00;1.00;;;10.70;99.90;10.50;99980.00;;;;5010403;28;20246;-72
2021/12/01 00:42:40;;;;;;;0.80;0.80;;;10.60;99.90;10.70;99968.00;;;;5009258;28;20544;-72
2021/12/01 00:45:12;;;;;;;1.17;1.17;;;10.70;99.90;10.60;99985.00;;;;5016784;28;20202;-72
2021/12/01 00:47:50;;;;;;;1.37;1.27;;;10.60;99.90;10.40;99966.00;;;;5013822;28;20208;-72
2021/12/01 00:50:32;;;;;;;1.53;1.43;;;10.60;99.90;10.30;99972.00;;;;5013854;28;20639;-72
2021/12/01 00:53:08;;;;;;;0.40;0.40;;;10.50;99.90;10.70;99927.00;;;;5012883;28;20203;-72
2021/12/01 00:55:41;;;;;;;0.63;0.63;;;10.60;99.90;10.90;99959.00;;;;5012652;28;20574;-72
2021/12/01 00:58:12;;;;;;;0.80;0.80;;;10.70;99.90;11.10;99965.00;;;;5013660;28;20161;-72
2021/12/01 01:00:43;;;;;;;0.50;0.50;;;10.80;99.90;10.60;99953.00;;;;5013886;28;20185;-72
2021/12/01 01:03:15;;;;;;;0.50;0.50;;;10.80;99.90;10.90;99946.00;;;;5013543;28;20202;-72
2021/12/01 01:05:54;;;;;;;0.43;0.43;;;10.80;99.90;10.70;99944.00;;;;4996870;28;20278;-72
2021/12/01 01:08:31;;;;;;;1.17;1.07;;;10.80;99.90;9.90;99932.00;;;;5012818;28;20210;-72
2021/12/01 01:16:25;;;;;;;0.70;0.70;;;10.50;99.90;10.40;99915.00;;;;5013480;28;20203;-72
2021/12/01 01:19:03;;;;;;;0.50;0.50;;;10.40;99.90;10.10;99926.00;;;;5013178;28;20558;-72
2021/12/01 01:21:38;;;;;;;0.43;0.43;;;10.40;99.90;10.40;99914.00;;;;5013174;28;20195;-72
2021/12/01 01:24:08;;;;;;;0.40;0.40;;;10.30;99.90;10.50;99906.00;;;;5013540;28;20185;-72
2021/12/01 01:26:39;;;;;;;0.40;0.40;;;10.40;99.90;10.40;99898.00;;;;5013604;28;20306;-72
2021/12/01 01:29:14;;;;;;;1.20;1.10;;;10.40;99.90;10.00;99897.00;;;;4996368;28;20199;-72
2021/12/01 01:31:57;;;;;;;0.50;0.50;;;10.30;99.90;10.40;99885.00;;;;4995586;28;20578;-72
2021/12/01 01:34:28;;;;;;;0.50;0.50;;;10.30;99.90;10.10;99847.00;;;;4996485;28;20644;-72
2021/12/01 01:36:59;;;;;;;0.77;0.77;;;10.30;99.90;9.90;99850.00;;;;4995723;28;20193;-72
2021/12/01 01:39:30;;;;;;;1.33;1.23;;;10.10;99.90;10.10;99868.00;;;;5012340;28;20190;-72
2021/12/01 01:42:03;;;;;;;0.67;0.67;;;10.20;99.90;10.10;99872.00;;;;4996381;28;20193;-72
2021/12/01 01:44:32;;;;;;;1.20;1.10;;;10.20;99.90;9.90;99865.00;;;;5014076;28;20579;-72
2021/12/01 01:47:03;;;;;;;0.70;0.70;;;10.10;99.90;10.10;99854.00;;;;4995013;28;20201;-73
2021/12/01 01:52:17;;;;;;;1.17;1.17;;;10.00;99.90;10.00;99850.00;;;;5012733;28;20237;-73
2021/12/01 01:54:49;;;;;;;0.80;0.80;;;10.00;99.90;9.80;99847.00;;;;4995858;28;20186;-73
2021/12/01 01:57:20;;;;;;;0.40;0.40;;;10.00;99.90;9.80;99847.00;;;;4995858;28;20658;-73
2021/12/01 01:59:52;;;;;;;0.40;0.40;;;10.00;99.90;10.20;99826.00;;;;4996489;28;20180;-73
2021/12/01 02:02:23;;;;;;;0.57;0.57;;;10.10;99.90;10.10;99844.00;;;;5012366;28;20200;-74
2021/12/01 02:04:56;;;;;;;0.87;0.87;;;10.10;99.90;9.90;99830.00;;;;5011522;28;20187;-74
2021/12/01 02:07:30;;;;;;;0.70;0.70;;;10.10;99.90;9.70;99824.00;;;;5012254;28;20178;-74
2021/12/01 02:10:03;;;;;;;0.90;0.90;;;9.90;99.90;9.90;99795.00;;;;5012136;28;20172;-74
2021/12/01 02:12:38;;;;;;;0.70;0.70;;;10.00;99.90;9.80;99788.00;;;;5012607;28;20297;-73
2021/12/01 02:15:06;;;;;;;0.73;0.73;;;9.90;99.90;9.70;99807.00;;;;5012496;28;20656;-73
2021/12/01 02:17:36;;;;;;;0.83;0.83;;;9.90;99.90;9.90;99798.00;;;;4995318;28;20181;-73
2021/12/01 02:20:18;;;;;;;1.00;1.00;;;10.00;99.90;10.00;99742.00;;;;4996270;28;20579;-73
2021/12/01 02:22:55;;;;;;;0.87;0.83;;;10.00;99.90;9.90;99788.00;;;;5012406;28;20171;-73
2021/12/01 02:25:24;;;;;;;0.87;0.87;;;10.00;99.90;9.80;99777.00;;;;5012256;28;20166;-75
2021/12/01 02:27:54;;;;;;;0.40;0.40;;;9.90;99.90;10.00;99745.00;;;;4995822;28;20253;-75
2021/12/01 02:30:29;;;;;;;0.80;0.80;;;10.00;99.90;9.70;99775.00;;;;5012056;28;20172;-75
2021/12/01 02:33:00;;;;;;;1.23;1.13;;;9.90;99.90;9.90;99756.00;;;;5010890;28;20248;-75
2021/12/01 02:35:32;;;;;;;0.30;0.30;;;9.90;99.90;9.90;99748.00;;;;4995218;28;20191;-75
2021/12/01 02:38:04;;;;;;;1.23;1.17;;;9.90;99.90;9.70;99740.00;;;;5011363;28;20179;-75
2021/12/01 02:40:38;;;;;;;0.77;0.77;;;9.90;99.90;10.00;99739.00;;;;5011513;28;20187;-75
2021/12/01 02:43:10;;;;;;;0.83;0.83;;;9.90;99.90;10.10;99721.00;;;;5013010;28;20182;-75
2021/12/01 02:45:42;;;;;;;1.77;1.67;;;10.00;99.90;9.90;99709.00;;;;5012851;28;20610;-73
2021/12/01 02:48:18;;;;;;;0.77;0.77;;;10.00;99.90;9.70;99692.00;;;;4994337;28;20607;-73
2021/12/01 02:50:52;;;;;;;1.60;1.43;;;9.90;99.90;9.90;99705.00;;;;5011527;28;20175;-73
2021/12/01 02:53:25;;;;;;;0.60;0.60;;;9.90;99.90;9.70;99681.00;;;;5012082;28;20695;-73
2021/12/01 02:56:02;;;;;;;1.70;1.47;;;9.80;99.90;9.20;99691.00;;;;4995507;28;20180;-74
2021/12/01 02:58:40;;;;;;;1.07;1.07;;;9.70;99.90;9.40;99670.00;;;;5012425;28;20853;-74
2021/12/01 03:01:16;;;;;;;3.10;2.80;;;9.70;99.90;9.10;99671.00;;;;5028466;28;20756;-73
2021/12/01 03:03:51;;;;;;;1.57;1.47;;;9.50;99.90;9.30;99663.00;;;;5028146;28;20883;-73
2021/12/01 03:06:26;;;;;;;0.80;0.80;;;9.50;99.90;9.30;99657.00;;;;5011689;28;20184;-73
2021/12/01 03:08:58;;;;;;;3.00;2.83;;;9.50;99.90;9.30;99635.00;;;;5012039;28;20628;-75
2021/12/01 03:11:34;;;;;;;1.03;1.03;;;9.40;99.90;9.20;99634.00;;;;5011866;28;20199;-77
2021/12/01 03:14:15;;;;;;;1.77;1.67;;;9.50;99.90;9.10;99620.00;;;;5011790;28;20181;-78
2021/12/01 03:16:48;;;;;;;1.43;1.33;;;9.40;99.90;9.20;99617.00;;;;5010821;28;20595;-79
2021/12/01 03:19:22;;;;;;;0.73;0.73;;;9.30;99.90;9.30;99597.00;;;;5014289;28;20329;-77
2021/12/01 03:21:51;;;;;;;2.10;2.00;;;9.40;99.90;9.30;99606.00;;;;5015116;28;20215;-76
2021/12/01 03:24:22;;;;;;;1.03;1.03;;;9.40;99.90;9.30;99599.00;;;;5015410;28;20262;-75
2021/12/01 03:26:56;;;;;;;0.80;0.80;;;9.40;99.90;9.30;99546.00;;;;5016393;28;20170;-74
2021/12/01 03:29:27;;;;;;;1.43;1.33;;;9.40;99.90;9.20;99577.00;;;;5015474;28;20651;-73
2021/12/01 03:31:56;;;;;;;1.10;1.10;;;9.40;99.90;9.10;99585.00;;;;4998845;28;20233;-73
2021/12/01 03:34:27;;;;;;;0.77;0.77;;;9.30;99.90;8.90;99522.00;;;;5015519;28;20181;-73
2021/12/01 03:36:59;;;;;;;1.37;1.27;;;9.30;99.90;9.10;99550.00;;;;5015312;28;20564;-73
2021/12/01 03:39:28;;;;;;;1.87;1.77;;;9.30;99.90;9.00;99561.00;;;;5015415;28;20208;-73
2021/12/01 03:42:06;;;;;;;0.63;0.63;;;9.30;99.90;9.00;99556.00;;;;5014495;28;20259;-73
2021/12/01 03:44:43;;;;;;;2.90;2.20;;;9.30;99.90;8.90;99501.00;;;;4998985;28;20186;-72
2021/12/01 03:47:20;;;;;;;1.60;1.50;;;9.20;99.90;8.90;99542.00;;;;5015609;28;20189;-72
2021/12/01 03:49:54;;;;;;;1.40;1.30;;;9.20;99.90;9.10;99471.00;;;;5031950;28;20189;-72
2021/12/01 03:52:24;;;;;;;1.47;1.47;;;9.30;99.90;8.90;99517.00;;;;4998717;28;20265;-71
2021/12/01 03:54:59;;;;;;;1.87;1.77;;;9.30;99.90;8.80;99505.00;;;;5015079;28;20196;-71
2021/12/01 03:57:33;;;;;;;0.80;0.80;;;9.20;99.90;8.90;99481.00;;;;5015310;28;20227;-71
2021/12/01 04:00:07;;;;;;;1.37;1.27;;;9.30;99.90;8.70;99475.00;;;;5013181;28;20193;-71
2021/12/01 04:02:35;;;;;;;1.13;1.13;;;9.20;99.90;8.80;99477.00;;;;5016024;28;20229;-71
2021/12/01 04:05:07;;;;;;;1.07;1.07;;;9.20;99.90;8.70;99472.00;;;;5013553;28;20211;-71
2021/12/01 04:07:39;;;;;;;1.70;1.60;;;9.10;99.90;8.80;99466.00;;;;5014876;28;21046;-72
2021/12/01 04:10:14;;;;;;;3.20;1.60;;;9.10;99.90;8.70;99456.00;;;;4998125;28;20205;-72
2021/12/01 04:12:46;;;;;;;0.73;0.73;;;9.10;99.90;8.80;99450.00;;;;4997064;28;20211;-72
2021/12/01 04:15:13;;;;;;;1.93;1.80;;;9.00;99.90;8.60;99442.00;;;;5013535;28;20181;-73
2021/12/01 04:17:43;;;;;;;1.20;1.10;;;9.00;99.90;8.80;99441.00;;;;5014160;28;20707;-74
2021/12/01 04:20:12;;;;;;;0.97;0.70;;;9.00;99.90;8.60;99441.00;;;;4998165;28;20232;-74
2021/12/01 04:22:43;;;;;;;1.17;1.17;;;9.00;99.90;8.60;99450.00;;;;5029814;28;20193;-75
2021/12/01 04:25:12;;;;;;;0.70;0.70;;;8.90;99.90;8.80;99425.00;;;;4998131;28;20253;-75
2021/12/01 04:27:39;;;;;;;1.40;1.30;;;9.00;99.90;8.60;99428.00;;;;5047219;28;20196;-74
2021/12/01 04:30:21;;;;;;;1.30;1.20;;;9.00;99.90;8.80;99396.00;;;;5013760;28;20185;-74
2021/12/01 04:32:50;;;;;;;1.53;1.13;;;9.00;99.90;8.90;99407.00;;;;5015422;28;20224;-73
2021/12/01 04:35:37;;;;;;;1.00;1.00;;;9.00;99.90;8.60;99383.00;;;;4997718;28;20209;-73
2021/12/01 04:38:06;;;;;;;0.77;0.77;;;9.00;99.90;8.70;99393.00;;;;4997589;28;20271;-73
2021/12/01 04:40:40;;;;;;;0.80;0.80;;;9.00;99.90;8.70;99401.00;;;;5014093;28;20217;-73
2021/12/01 04:43:11;;;;;;;1.07;1.07;;;9.00;99.90;8.70;99395.00;;;;5013924;28;20174;-72
2021/12/01 04:45:58;;;;;;;1.13;1.10;;;9.00;99.90;8.90;99383.00;;;;5013565;28;20168;-73
2021/12/01 04:48:29;;;;;;;0.80;0.80;;;9.00;99.90;8.70;99400.00;;;;5013688;28;20180;-73
2021/12/01 04:51:00;;;;;;;0.77;0.77;;;9.00;99.90;8.70;99377.00;;;;5013271;28;20187;-73
2021/12/01 04:53:33;;;;;;;1.97;1.83;;;9.00;99.90;8.90;99371.00;;;;5014064;28;20195;-73
2021/12/01 04:56:06;;;;;;;1.60;1.50;;;9.00;99.90;8.90;99389.00;;;;5030504;28;20247;-72
2021/12/01 04:58:36;;;;;;;1.20;1.20;;;9.10;99.90;8.60;99365.00;;;;5029742;28;20208;-73
2021/12/01 05:01:07;;;;;;;1.00;1.00;;;9.00;99.90;8.70;99357.00;;;;5012247;28;20530;-73
2021/12/01 05:03:35;;;;;;;0.80;0.80;;;9.00;99.90;8.80;99340.00;;;;5030270;28;20176;-72
2021/12/01 05:06:06;;;;;;;0.73;0.73;;;9.00;99.90;9.00;99368.00;;;;5014672;28;20188;-72
2021/12/01 05:08:35;;;;;;;0.70;0.70;;;9.10;99.90;9.30;99340.00;;;;5013857;28;20196;-72
2021/12/01 05:11:09;;;;;;;0.70;0.70;;;9.20;99.90;9.20;99355.00;;;;5015084;28;20230;-72
2021/12/01 05:13:43;;;;;;;1.00;1.00;;;9.20;99.90;9.30;99313.00;;;;5013565;28;20541;-73
2021/12/01 05:16:15;;;;;;;1.03;0.80;;;9.30;99.90;9.10;99344.00;;;;5012995;28;20192;-72
2021/12/01 05:18:46;;;;;;;1.03;1.03;;;9.30;99.90;9.20;99343.00;;;;5013523;28;20197;-72
2021/12/01 05:21:17;;;;;;;0.80;0.80;;;9.30;99.90;9.30;99332.00;;;;5013767;28;20184;-72
2021/12/01 05:23:44;;;;;;;0.70;0.70;;;9.30;99.90;9.10;99320.00;;;;5029837;28;20180;-72
2021/12/01 05:26:13;;;;;;;1.50;1.40;;;9.20;99.90;9.30;99311.00;;;;5013257;28;20184;-72
2021/12/01 05:28:44;;;;;;;1.03;1.03;;;9.30;99.90;9.30;99309.00;;;;5012896;28;20692;-72
2021/12/01 05:31:15;;;;;;;0.97;0.97;;;9.40;99.90;9.50;99316.00;;;;4996794;28;20239;-72
2021/12/01 05:33:43;;;;;;;1.40;1.30;;;9.40;99.90;9.20;99282.00;;;;5013132;28;20690;-72
2021/12/01 05:36:15;;;;;;;0.70;0.70;;;9.30;99.90;9.20;99262.00;;;;5013299;28;20695;-72
2021/12/01 05:38:47;;;;;;;1.50;1.40;;;9.30;99.90;8.90;99293.00;;;;5013320;28;20168;-72
2021/12/01 05:41:21;;;;;;;0.97;0.97;;;9.30;99.90;9.20;99276.00;;;;5028764;28;20283;-72
2021/12/01 05:43:53;;;;;;;0.97;0.97;;;9.30;99.90;9.40;99271.00;;;;5013384;28;20275;-71
2021/12/01 05:46:27;;;;;;;1.10;1.10;;;9.50;99.90;9.30;99242.00;;;;5011907;28;20640;-72
2021/12/01 05:49:00;;;;;;;1.10;1.10;;;9.50;99.90;9.20;99244.00;;;;4996567;28;20184;-72
2021/12/01 05:51:33;;;;;;;1.03;1.03;;;9.40;99.90;9.40;99261.00;;;;5013157;28;20204;-72
2021/12/01 05:54:02;;;;;;;1.00;1.00;;;9.50;99.90;9.50;99268.00;;;;5012557;28;20297;-72
2021/12/01 05:56:33;;;;;;;0.87;0.87;;;9.60;99.90;9.20;99267.00;;;;4996415;28;20659;-72
2021/12/01 05:59:01;;;;;;;0.60;0.60;;;9.50;99.90;9.60;99246.00;;;;5012293;28;20548;-73
2021/12/01 06:01:31;;;;;;;1.83;1.40;;;9.60;99.90;9.30;99233.00;;;;5012850;28;20301;-73
2021/12/01 06:04:01;;;;;;;2.53;1.00;;;9.60;99.90;9.40;99250.00;;;;5012596;28;20556;-73
2021/12/01 06:06:29;;;;;;;2.20;2.00;;;9.60;99.90;9.40;99255.00;;;;5012836;28;20625;-73
2021/12/01 06:09:10;;;;;;;1.00;1.00;;;9.60;99.90;9.20;99193.00;;;;5011477;28;20231;-72
2021/12/01 06:11:42;;;;;;;0.60;0.60;;;9.50;99.90;9.30;99250.00;;;;4996419;28;20224;-73
2021/12/01 06:14:16;;;;;;;0.80;0.80;;;9.50;99.90;9.50;99247.00;;;;5012619;28;20177;-73
2021/12/01 06:16:47;;;;;;;1.40;1.30;;;9.60;99.90;9.50;99238.00;;;;5028873;28;20189;-72
2021/12/01 06:19:19;;;;;;;0.70;0.70;;;9.60;99.90;9.70;99173.00;;;;5012280;28;20169;-73
2021/12/01 06:21:50;;;;;;;1.13;1.13;;;9.60;99.90;9.40;99229.00;;;;5011568;28;20200;-73
2021/12/01 06:24:16;;;;;;;1.00;1.00;;;9.60;99.90;9.50;99225.00;;;;5012058;28;20172;-73
2021/12/01 06:26:47;;;;;;;0.70;0.70;;;9.60;99.90;9.40;99223.00;;;;5013965;28;20532;-73
2021/12/01 06:29:21;;;;;;;1.70;1.23;;;9.50;99.90;9.70;99237.00;;;;5011984;28;20289;-73
2021/12/01 06:32:00;;;;;;;1.03;1.03;;;9.60;99.90;9.30;99235.00;;;;5011072;28;20237;-72
2021/12/01 06:34:32;;;;;;;1.23;1.13;;;9.60;99.90;9.20;99219.00;;;;4996196;28;20185;-72
2021/12/01 06:37:00;;;;;;;1.33;1.23;;;9.50;99.90;9.30;99239.00;;;;5013570;28;20692;-72
2021/12/01 06:39:29;;;;;;;1.20;1.20;;;9.60;99.90;9.30;99223.00;;;;5012116;28;20630;-73
2021/12/01 06:42:01;;;;;;;0.60;0.60;;;9.60;99.90;9.30;99182.00;;;;5012289;28;20270;-72
2021/12/01 06:44:33;;;;;;;0.90;0.90;;;9.50;99.90;9.10;99225.00;;;;5012150;28;20319;-72
2021/12/01 06:47:17;;;;;;;0.60;0.60;;;9.40;99.90;9.20;99181.00;;;;5011470;28;20185;-73
2021/12/01 06:49:53;;;;;;;2.13;1.53;;;9.50;99.90;9.30;99220.00;;;;5012439;28;20199;-72
2021/12/01 06:52:27;;;;;;;1.23;1.23;;;9.60;99.90;9.70;99208.00;;;;5012317;28;20289;-72
2021/12/01 06:55:00;;;;;;;1.00;1.00;;;9.60;99.90;9.10;99230.00;;;;4999532;28;20189;-72
2021/12/01 06:57:33;;;;;;;1.63;1.53;;;9.50;99.90;9.20;99235.00;;;;5031403;28;20181;-72
2021/12/01 07:00:12;;;;;;;1.17;0.70;;;9.50;99.90;9.40;99228.00;;;;5016072;28;20192;-72
2021/12/01 07:02:41;;;;;;;0.70;0.70;;;9.50;99.90;9.40;99211.00;;;;5016078;28;20225;-72
2021/12/01 07:05:09;;;;;;;0.87;0.87;;;9.60;99.90;9.50;99180.00;;;;5016075;28;20256;-74
2021/12/01 07:07:41;;;;;;;0.87;0.87;;;9.60;99.90;9.80;99216.00;;;;4999462;28;20181;-75
2021/12/01 07:10:12;;;;;;;3.30;1.70;;;9.80;99.90;9.40;99217.00;;;;5015582;28;20182;-74
2021/12/01 07:12:43;;;;;;;1.50;1.40;;;9.70;99.90;9.30;99202.00;;;;5015584;28;20290;-74
2021/12/01 07:15:18;;;;;;;0.73;0.73;;;9.70;99.90;9.30;99215.00;;;;4999805;28;20177;-74
2021/12/01 07:17:49;;;;;;;1.00;1.00;;;9.70;99.90;9.20;99165.00;;;;5015770;28;20160;-74
2021/12/01 07:20:18;;;;;;;1.00;1.00;;;9.60;99.90;9.30;99183.00;;;;5015275;28;20192;-74
2021/12/01 07:22:52;;;;;;;2.00;1.00;;;9.70;99.90;9.60;99204.00;;;;5015382;28;20175;-73
2021/12/01 07:25:26;;;;;;;0.87;0.87;;;9.70;99.90;9.60;99206.00;;;;4999161;28;20187;-73
2021/12/01 07:28:06;;;;;;;0.77;0.67;;;9.80;99.90;9.50;99155.00;;;;4999205;28;20221;-73
2021/12/01 07:30:43;;;;;;;1.40;1.30;;;9.70;99.90;9.40;99183.00;;;;5015462;28;20274;-73
2021/12/01 07:33:14;;;;;;;0.83;0.83;;;9.70;99.90;9.50;99188.00;;;;5014601;28;20221;-73
2021/12/01 07:35:54;;;;;;;1.53;1.43;;;9.70;99.90;9.70;99189.00;;;;5014955;28;20208;-73
2021/12/01 07:38:29;;;;;;;0.70;0.70;;;9.70;99.90;9.80;99185.00;;;;5015261;28;20198;-73
2021/12/01 07:40:58;;;;;;;0.80;0.80;;;9.80;99.90;9.70;99162.00;;;;5015101;28;20190;-73
2021/12/01 07:43:34;;;;;;;0.60;0.60;;;9.80;99.90;9.80;99169.00;;;;5014636;28;20193;-74
2021/12/01 07:46:09;;;;;;;0.80;0.80;;;9.70;99.90;9.80;99127.00;;;;5015034;28;20207;-74
2021/12/01 07:48:36;;;;;;;1.13;1.00;;;9.90;99.90;9.50;99177.00;;;;5015424;28;20172;-73
2021/12/01 07:51:08;;;;;;;0.90;0.90;;;9.70;99.90;9.60;99165.00;;;;5014746;28;20176;-74
2021/12/01 07:53:42;;;;;;;0.60;0.60;;;9.70;99.90;9.30;99155.00;;;;5015112;28;20187;-74
2021/12/01 07:56:13;;;;;;;1.33;1.27;;;9.60;99.90;9.30;99178.00;;;;5015979;28;20184;-74
2021/12/01 07:58:53;;;;;;;0.70;0.70;;;9.60;99.90;9.40;99193.00;;;;5014823;28;20179;-74
2021/12/01 08:01:24;;;;;;;0.63;0.63;;;9.70;99.90;9.40;99170.00;;;;5014974;28;20195;-73
2021/12/01 08:03:56;;;;;;;0.70;0.70;;;9.60;99.90;9.50;99152.00;;;;5014066;28;20176;-74
2021/12/01 08:06:29;;;;;;;0.70;0.70;;;9.70;99.90;9.60;99171.00;;;;5014227;28;20560;-73
2021/12/01 08:09:03;;;;;;;0.60;0.60;;;9.70;99.90;9.60;99162.00;;;;5015023;28;20548;-72
2021/12/01 08:11:38;;;;;;;1.00;1.00;;;9.70;99.90;9.80;99151.00;;;;4998185;28;20211;-72
2021/12/01 08:14:09;;;;;;;2.23;1.37;;;9.80;99.90;9.70;99158.00;;;;5014216;28;20198;-73
2021/12/01 08:16:40;;;;;;;0.70;0.70;;;9.80;99.90;9.70;99150.00;;;;5014518;28;20184;-73
2021/12/01 08:19:12;;;;;;;0.80;0.80;;;9.80;99.90;10.00;99158.00;;;;5014909;28;20199;-74
2021/12/01 08:21:38;;;;;;;0.80;0.80;;;9.90;99.90;10.20;99150.00;;;;5014338;28;20180;-75
2021/12/01 08:24:11;;;;;;;0.80;0.80;;;10.00;99.90;10.10;99147.00;;;;5014386;28;20260;-77
2021/12/01 08:26:48;;;;;;;0.90;0.90;;;10.00;99.90;10.30;99156.00;;;;5014757;28;20180;-77
2021/12/01 08:29:20;;;;;;;0.80;0.80;;;10.00;99.90;10.20;99148.00;;;;5014270;28;20180;-77
2021/12/01 08:31:45;;;;;;;0.77;0.77;;;10.10;99.90;9.70;99145.00;;;;5013713;28;20229;-77
2021/12/01 08:34:13;;;;;;;0.80;0.80;;;9.90;99.90;9.50;99155.00;;;;5014400;28;20275;-77
2021/12/01 08:36:41;;;;;;;0.70;0.70;;;9.80;99.90;9.60;99137.00;;;;5013748;28;20191;-76
2021/12/01 08:39:09;;;;;;;0.83;0.83;;;9.70;99.90;9.60;99154.00;;;;5014296;28;20192;-76
2021/12/01 08:41:40;;;;;;;1.27;1.20;;;9.80;99.90;9.30;99153.00;;;;5029783;28;20187;-75
2021/12/01 08:44:10;;;;;;;2.30;1.77;;;9.70;99.90;9.90;99150.00;;;;5030937;28;20665;-69
2021/12/01 08:46:44;;;;;;;0.70;0.70;;;9.80;99.90;9.80;99160.00;;;;5028107;28;20533;-78
2021/12/01 08:49:19;;;;;;;1.77;1.57;;;9.90;99.90;9.60;99143.00;;;;5034847;28;20262;-78
2021/12/01 08:51:47;;;;;;;0.70;0.70;;;9.90;99.90;9.60;99143.00;;;;5019099;28;20203;-86
2021/12/01 08:54:19;;;;;;;0.60;0.60;;;9.80;99.90;10.10;99181.00;;;;5018922;28;20643;-85
2021/12/01 08:56:50;;;;;;;0.60;0.60;;;10.00;99.90;10.00;99155.00;;;;5014635;28;20663;-87
2021/12/01 08:59:15;;;;;;;1.23;1.13;;;10.00;99.90;9.80;99183.00;;;;5005589;28;20188;-85
2021/12/01 09:01:47;;;;;;;1.27;1.27;;;9.90;99.90;9.80;99175.00;;;;5035504;28;20210;-81
2021/12/01 09:04:19;;;;;;;2.10;1.87;;;9.80;99.90;9.50;99176.00;;;;5001940;28;20191;-85
2021/12/01 09:06:50;;;;;;;1.53;1.53;;;9.70;99.90;9.30;99193.00;;;;5004753;28;20184;-86
2021/12/01 09:09:18;;;;;;;1.23;1.23;;;9.70;99.90;9.40;99182.00;;;;5027128;28;20172;-87
2021/12/01 09:11:46;;;;;;;1.00;1.00;;;9.70;99.90;9.40;99186.00;;;;5009764;28;20688;-80
2021/12/01 09:14:20;;;;;;;7.83;4.50;;;9.70;99.90;9.80;99181.00;;;;5003437;28;20180;-80
2021/12/01 09:16:50;;;;;;;2.77;1.63;;;9.80;99.90;9.90;99166.00;;;;5012523;28;20176;-79
2021/12/01 09:19:19;;;;;;;4.13;2.30;;;9.90;99.90;9.90;99183.00;;;;5030612;28;20199;-79
2021/12/01 09:21:46;;;;;;;5.87;2.77;;;10.00;99.90;10.10;99185.00;;;;5013169;28;20168;-79
2021/12/01 09:24:14;;;;;;;2.03;1.93;;;10.10;99.90;9.80;99184.00;;;;5013418;28;20193;-77
2021/12/01 09:26:46;;;;;;;6.17;2.87;;;10.10;99.90;9.90;99139.00;;;;5012725;28;20512;-77
2021/12/01 09:29:15;;;;;;;2.03;1.80;;;10.20;99.90;10.30;99176.00;;;;5030041;28;20198;-78
2021/12/01 09:31:46;;;;;;;3.60;1.70;;;10.20;99.90;10.40;99176.00;;;;5029272;28;20213;-78
2021/12/01 09:34:12;;;;;;;1.50;0.90;;;10.40;99.90;10.30;99169.00;;;;4996663;28;20273;-78
2021/12/01 09:36:38;;;;;;;0.80;0.80;;;10.30;99.90;10.60;99181.00;;;;5014267;28;20206;-77
2021/12/01 09:39:06;;;;;;;0.60;0.60;;;10.40;99.90;10.50;99196.00;;;;4996538;28;20215;-73
2021/12/01 09:41:33;;;;;;;0.80;0.80;;;10.40;99.90;10.70;99189.00;;;;5029202;28;20197;-76
2021/12/01 09:44:03;;;;;;;0.80;0.80;;;10.60;99.90;10.60;99185.00;;;;5012691;28;20238;-74
2021/12/01 09:46:41;;;;;;;0.80;0.80;;;10.60;99.90;10.50;99193.00;;;;5012831;28;20179;-74
2021/12/01 09:49:21;;;;;;;0.90;0.90;;;10.60;99.90;10.60;99177.00;;;;4994568;28;20267;-74
2021/12/01 09:51:57;;;;;;;1.33;1.33;;;10.60;99.90;10.30;99201.00;;;;5012429;28;20686;-74
2021/12/01 09:54:23;;;;;;;0.80;0.80;;;10.50;99.90;10.70;99198.00;;;;5012332;28;20214;-74
2021/12/01 09:56:57;;;;;;;1.67;1.57;;;10.50;99.90;10.40;99171.00;;;;5028699;28;20185;-74
2021/12/01 09:59:36;;;;;;;1.00;1.00;;;10.50;99.90;10.70;99192.00;;;;5011995;28;20183;-74
2021/12/01 10:02:05;;;;;;;0.80;0.80;;;10.50;99.90;10.30;99189.00;;;;5012016;28;20165;-73
2021/12/01 10:04:39;;;;;;;0.80;0.80;;;10.40;99.90;10.70;99207.00;;;;5013332;28;20179;-74
2021/12/01 10:07:42;;;;;;;1.17;1.17;;;10.50;99.90;10.90;99213.00;;;;4995674;28;20186;-74
2021/12/01 10:10:13;;;;;;;0.90;0.90;;;10.60;99.90;11.00;99224.00;;;;5011714;28;20189;-74
2021/12/01 10:12:51;;;;;;;0.90;0.90;;;10.70;99.90;11.20;99113.00;;;;4996075;28;20308;-74
2021/12/01 10:15:32;;;;;;;1.00;1.00;;;10.80;99.90;11.40;99213.00;;;;5011534;28;20611;-76
2021/12/01 10:18:17;;;;;;;0.90;0.90;;;11.20;99.90;11.20;99208.00;;;;5002399;28;20191;-76
2021/12/01 10:33:34;;;;;;;0.70;0.70;;;10.10;99.90;10.00;99223.00;;;;5070001;28;20615;-73
2021/12/01 10:36:10;;;;;;;0.60;0.60;;;10.10;99.90;10.40;99230.00;;;;5049205;28;20179;-74
2021/12/01 10:38:45;;;;;;;1.00;0.90;;;10.20;99.90;10.60;99226.00;;;;5049191;28;20277;-73
2021/12/01 10:41:21;;;;;;;0.60;0.60;;;10.40;99.90;10.60;99235.00;;;;5064973;28;20179;-74
2021/12/01 10:43:52;;;;;;;0.70;0.70;;;10.50;99.90;10.70;99208.00;;;;5065554;28;20184;-74
2021/12/01 10:46:23;;;;;;;0.80;0.80;;;10.60;99.90;10.90;99194.00;;;;5065770;28;20230;-74
2021/12/01 10:49:04;;;;;;;0.60;0.60;;;10.70;99.90;10.70;99217.00;;;;5064006;28;20714;-74
2021/12/01 10:51:40;;;;;;;0.60;0.60;;;10.60;99.90;10.70;99215.00;;;;5065095;28;20200;-74
2021/12/01 10:54:20;;;;;;;0.70;0.70;;;10.50;99.90;10.80;99224.00;;;;5065376;28;20257;-74
2021/12/01 10:57:18;;;;;;;1.47;1.37;;;10.60;99.90;10.70;99211.00;;;;5065387;28;20186;-75
2021/12/01 10:59:52;;;;;;;0.70;0.70;;;10.60;99.90;10.90;99168.00;;;;5041080;28;20197;-76
2021/12/01 11:02:19;;;;;;;0.70;0.70;;;10.60;99.90;10.80;99214.00;;;;5035769;28;20201;-74
2021/12/01 11:04:55;;;;;;;0.60;0.60;;;10.60;99.90;11.00;99221.00;;;;5061635;28;20181;-73
2021/12/01 11:07:30;;;;;;;0.60;0.60;;;10.70;99.90;11.00;99219.00;;;;5045351;28;20645;-73
2021/12/01 11:10:18;;;;;;;0.60;0.60;;;10.70;99.90;10.90;99221.00;;;;5044832;28;20275;-75
2021/12/01 11:13:05;;;;;;;0.60;0.60;;;10.70;99.90;10.70;99213.00;;;;5061760;28;20212;-75
2021/12/01 11:15:42;;;;;;;0.50;0.50;;;10.60;99.90;10.40;99211.00;;;;5030526;28;20169;-75
2021/12/01 11:18:23;;;;;;;0.40;0.40;;;10.40;99.90;10.30;99216.00;;;;5048878;28;20191;-74
2021/12/01 11:20:57;;;;;;;0.60;0.60;;;10.30;99.90;10.50;99204.00;;;;5065257;28;20226;-75
2021/12/01 11:23:37;;;;;;;1.70;1.07;;;10.30;99.90;9.90;99208.00;;;;5031803;28;20631;-74
2021/12/01 11:26:19;;;;;;;0.50;0.50;;;10.20;99.90;10.40;99172.00;;;;5065065;28;20174;-75
2021/12/01 11:28:58;;;;;;;0.73;0.63;;;10.30;99.90;10.00;99151.00;;;;5048380;28;20201;-74
2021/12/01 11:31:39;;;;;;;0.60;0.60;;;10.20;99.90;10.30;99208.00;;;;5047631;28;20224;-74
2021/12/01 11:34:16;;;;;;;1.40;1.00;;;10.20;99.90;9.80;99181.00;;;;5048394;28;20209;-74
2021/12/01 11:36:50;;;;;;;4.90;1.13;;;10.00;99.90;9.70;99207.00;;;;5049131;28;20189;-72
2021/12/01 11:39:30;;;;;;;0.50;0.50;;;10.00;99.90;9.90;99207.00;;;;5064345;28;20249;-72
2021/12/01 11:42:04;;;;;;;1.07;0.97;;;9.90;99.90;9.50;99204.00;;;;5048640;28;20203;-74
2021/12/01 11:44:35;;;;;;;2.47;1.67;;;9.80;99.90;9.30;99165.00;;;;5034442;28;20211;-74
2021/12/01 11:47:04;;;;;;;1.23;1.13;;;9.70;99.90;9.70;99176.00;;;;5051423;28;20612;-73
2021/12/01 11:49:36;;;;;;;0.77;0.77;;;9.80;99.90;9.90;99209.00;;;;5051080;28;20178;-73